AXM320 VQPR-VNKT
Flight info
| Callsign | AXM320 |
|---|---|
| Flight time | 0h 51m |
| Altitude | 36000 |
| Route | PRO G348 KIMTI KMTI2R |
| Aircraft | A320/M-SDE3FGHIRWY/LB1 |
Departure
| Time | 2025-12-29 15:27 |
|---|---|
| Airport | Paro International Airport (VQPR) |
Arrival
| Time | 2025-12-29 16:19 |
|---|---|
| Airport | Tribhuvan International Airport (VNKT) |
| Time | Latitude | Longitude | Altitude | Speed | Heading |
|---|---|---|---|---|---|
| 2025-12-29 15:06 | 27.40525 | 89.42153 | 7350 ft | 0 kts | 238° |
| 2025-12-29 15:11 | 27.40537 | 89.42175 | 7353 ft | 2 kts | 238° |
| 2025-12-29 15:11 | 27.40555 | 89.42207 | 7352 ft | 2 kts | 238° |
| 2025-12-29 15:12 | 27.40565 | 89.42226 | 7353 ft | 0 kts | 238° |
| 2025-12-29 15:18 | 27.40579 | 89.42204 | 7352 ft | 5 kts | 319° |
| 2025-12-29 15:19 | 27.40714 | 89.42113 | 7354 ft | 17 kts | 329° |
| 2025-12-29 15:19 | 27.40759 | 89.42083 | 7354 ft | 0 kts | 330° |
| 2025-12-29 15:21 | 27.40822 | 89.42044 | 7354 ft | 13 kts | 354° |
| 2025-12-29 15:21 | 27.40976 | 89.42056 | 7358 ft | 17 kts | 332° |
| 2025-12-29 15:22 | 27.41208 | 89.41906 | 7353 ft | 1 kts | 35° |
| 2025-12-29 15:22 | 27.41205 | 89.41912 | 7352 ft | 2 kts | 104° |
| 2025-12-29 15:23 | 27.41171 | 89.41930 | 7356 ft | 0 kts | 151° |
| 2025-12-29 15:26 | 27.40696 | 89.42232 | 7355 ft | 105 kts | 150° |
| 2025-12-29 15:26 | 27.39873 | 89.42760 | 7390 ft | 166 kts | 149° |
| 2025-12-29 15:27 | 27.37124 | 89.45367 | 9595 ft | 177 kts | 143° |
| 2025-12-29 15:27 | 27.35049 | 89.47037 | 11131 ft | 183 kts | 143° |
| 2025-12-29 15:28 | 27.34044 | 89.47927 | 11907 ft | 185 kts | 142° |
| 2025-12-29 15:28 | 27.31812 | 89.49791 | 13014 ft | 212 kts | 149° |
| 2025-12-29 15:29 | 27.28861 | 89.50659 | 14113 ft | 234 kts | 187° |
| 2025-12-29 15:29 | 27.26143 | 89.48591 | 15025 ft | 255 kts | 243° |
| 2025-12-29 15:30 | 27.24437 | 89.44778 | 16004 ft | 292 kts | 245° |
| 2025-12-29 15:30 | 27.21471 | 89.38071 | 16731 ft | 351 kts | 245° |
| 2025-12-29 15:31 | 27.19199 | 89.32986 | 17459 ft | 373 kts | 245° |
| 2025-12-29 15:31 | 27.16834 | 89.27718 | 18639 ft | 379 kts | 245° |
| 2025-12-29 15:32 | 27.15652 | 89.25092 | 19378 ft | 375 kts | 245° |
| 2025-12-29 15:32 | 27.13296 | 89.19851 | 20603 ft | 376 kts | 246° |
| 2025-12-29 15:33 | 27.10928 | 89.14570 | 21742 ft | 381 kts | 246° |
| 2025-12-29 15:33 | 27.08533 | 89.09246 | 22685 ft | 386 kts | 246° |
| 2025-12-29 15:34 | 27.06097 | 89.03838 | 23731 ft | 390 kts | 246° |
| 2025-12-29 15:35 | 27.00194 | 88.90835 | 27838 ft | 342 kts | 246° |
| 2025-12-29 15:37 | 26.92408 | 88.75703 | 30328 ft | 308 kts | 243° |
| 2025-12-29 15:39 | 26.83461 | 88.59302 | 30151 ft | 318 kts | 244° |
| 2025-12-29 15:41 | 26.74158 | 88.42332 | 30082 ft | 319 kts | 244° |
| 2025-12-29 15:43 | 26.74489 | 88.22398 | 30082 ft | 311 kts | 298° |
| 2025-12-29 15:45 | 26.82945 | 88.07237 | 30081 ft | 383 kts | 300° |
| 2025-12-29 15:47 | 26.95080 | 87.85564 | 30087 ft | 421 kts | 299° |
| 2025-12-29 15:49 | 27.07457 | 87.63333 | 30105 ft | 418 kts | 300° |
| 2025-12-29 15:51 | 27.19694 | 87.41225 | 30081 ft | 419 kts | 300° |
| 2025-12-29 15:53 | 27.31706 | 87.18692 | 30102 ft | 418 kts | 288° |
| 2025-12-29 15:55 | 27.36826 | 86.93201 | 30086 ft | 420 kts | 283° |
| 2025-12-29 15:57 | 27.36358 | 86.67610 | 30134 ft | 419 kts | 260° |
| 2025-12-29 15:59 | 27.30744 | 86.42262 | 30102 ft | 416 kts | 260° |
| 2025-12-29 16:01 | 27.25096 | 86.16982 | 30106 ft | 416 kts | 260° |
| 2025-12-29 16:03 | 27.19419 | 85.91740 | 29519 ft | 406 kts | 260° |
| 2025-12-29 16:05 | 27.14530 | 85.70243 | 25073 ft | 329 kts | 261° |
| 2025-12-29 16:05 | 27.13966 | 85.67754 | 24633 ft | 327 kts | 261° |
| 2025-12-29 16:06 | 27.12293 | 85.60419 | 23340 ft | 320 kts | 260° |
| 2025-12-29 16:06 | 27.11754 | 85.55584 | 22516 ft | 311 kts | 273° |
| 2025-12-29 16:07 | 27.11772 | 85.50713 | 21698 ft | 311 kts | 272° |
| 2025-12-29 16:07 | 27.11775 | 85.45861 | 20881 ft | 309 kts | 272° |
| 2025-12-29 16:08 | 27.11779 | 85.41083 | 20046 ft | 307 kts | 272° |
| 2025-12-29 16:08 | 27.11777 | 85.36302 | 19183 ft | 305 kts | 272° |
| 2025-12-29 16:09 | 27.11780 | 85.31468 | 18855 ft | 314 kts | 274° |
| 2025-12-29 16:09 | 27.12026 | 85.29031 | 18347 ft | 315 kts | 283° |
| 2025-12-29 16:09 | 27.13573 | 85.24523 | 17466 ft | 316 kts | 299° |
| 2025-12-29 16:10 | 27.18319 | 85.19058 | 16314 ft | 320 kts | 324° |
| 2025-12-29 16:11 | 27.22464 | 85.17221 | 15469 ft | 323 kts | 342° |
| 2025-12-29 16:11 | 27.26882 | 85.17067 | 14486 ft | 313 kts | 2° |
| 2025-12-29 16:12 | 27.30875 | 85.18384 | 14205 ft | 289 kts | 14° |
| 2025-12-29 16:12 | 27.34581 | 85.20058 | 13217 ft | 284 kts | 14° |
| 2025-12-29 16:13 | 27.38205 | 85.21686 | 12244 ft | 280 kts | 14° |
| 2025-12-29 16:13 | 27.41864 | 85.23334 | 11401 ft | 288 kts | 16° |
| 2025-12-29 16:13 | 27.43743 | 85.24178 | 10959 ft | 293 kts | 17° |
| 2025-12-29 16:14 | 27.49307 | 85.26700 | 9631 ft | 269 kts | 18° |
| 2025-12-29 16:15 | 27.54200 | 85.28912 | 8275 ft | 238 kts | 19° |
| 2025-12-29 16:15 | 27.57142 | 85.30236 | 7285 ft | 220 kts | 20° |
| 2025-12-29 16:16 | 27.58583 | 85.30873 | 6458 ft | 222 kts | 21° |
| 2025-12-29 16:16 | 27.61294 | 85.32066 | 5698 ft | 187 kts | 21° |
| 2025-12-29 16:17 | 27.63438 | 85.33066 | 5522 ft | 154 kts | 22° |
| 2025-12-29 16:17 | 27.65381 | 85.33928 | 4987 ft | 147 kts | 21° |
| 2025-12-29 16:17 | 27.66329 | 85.34355 | 4776 ft | 146 kts | 22° |
| 2025-12-29 16:18 | 27.68996 | 85.35607 | 4391 ft | 88 kts | 22° |
| 2025-12-29 16:19 | 27.69490 | 85.35743 | 4397 ft | 13 kts | 328° |
| 2025-12-29 16:19 | 27.69709 | 85.35817 | 4398 ft | 21 kts | 22° |
| 2025-12-29 16:20 | 27.69928 | 85.35838 | 4398 ft | 15 kts | 289° |
| 2025-12-29 16:20 | 27.69939 | 85.35809 | 4398 ft | 0 kts | 294° |